sensor_id;sensor_type;location;lat;lon;timestamp;temperature;humidity
6879;DHT22;3478;51.462;7.338;2023-04-24T00:01:48;11.60;99.90
6879;DHT22;3478;51.462;7.338;2023-04-24T00:06:52;11.60;99.90
6879;DHT22;3478;51.462;7.338;2023-04-24T00:11:57;11.50;99.90
6879;DHT22;3478;51.462;7.338;2023-04-24T00:16:59;11.40;99.90
6879;DHT22;3478;51.462;7.338;2023-04-24T00:22:02;11.30;99.90
6879;DHT22;3478;51.462;7.338;2023-04-24T00:27:04;11.30;99.90
6879;DHT22;3478;51.462;7.338;2023-04-24T00:32:06;11.20;99.90
6879;DHT22;3478;51.462;7.338;2023-04-24T00:37:09;11.10;99.90
6879;DHT22;3478;51.462;7.338;2023-04-24T00:42:12;11.00;99.90
6879;DHT22;3478;51.462;7.338;2023-04-24T00:47:14;10.90;99.90
6879;DHT22;3478;51.462;7.338;2023-04-24T00:52:17;10.90;99.90
6879;DHT22;3478;51.462;7.338;2023-04-24T00:57:19;10.90;99.90
6879;DHT22;3478;51.462;7.338;2023-04-24T01:02:22;10.90;99.90
6879;DHT22;3478;51.462;7.338;2023-04-24T01:07:26;10.80;99.90
6879;DHT22;3478;51.462;7.338;2023-04-24T01:12:28;10.70;99.90
6879;DHT22;3478;51.462;7.338;2023-04-24T01:17:30;10.60;99.90
6879;DHT22;3478;51.462;7.338;2023-04-24T01:22:33;10.60;99.90
6879;DHT22;3478;51.462;7.338;2023-04-24T01:27:35;10.50;99.90
6879;DHT22;3478;51.462;7.338;2023-04-24T01:32:37;10.60;99.90
6879;DHT22;3478;51.462;7.338;2023-04-24T01:37:41;10.60;99.90
6879;DHT22;3478;51.462;7.338;2023-04-24T01:42:42;10.60;99.90
6879;DHT22;3478;51.462;7.338;2023-04-24T01:47:45;10.70;99.90
6879;DHT22;3478;51.462;7.338;2023-04-24T01:52:50;10.60;99.90
6879;DHT22;3478;51.462;7.338;2023-04-24T01:57:52;10.60;99.90
6879;DHT22;3478;51.462;7.338;2023-04-24T02:02:56;10.40;99.90
6879;DHT22;3478;51.462;7.338;2023-04-24T02:07:59;10.40;99.90
6879;DHT22;3478;51.462;7.338;2023-04-24T02:13:01;10.40;99.90
6879;DHT22;3478;51.462;7.338;2023-04-24T02:18:03;10.30;99.90
6879;DHT22;3478;51.462;7.338;2023-04-24T02:23:06;10.30;99.90
6879;DHT22;3478;51.462;7.338;2023-04-24T02:28:08;10.10;99.90
6879;DHT22;3478;51.462;7.338;2023-04-24T02:33:10;10.10;99.90
6879;DHT22;3478;51.462;7.338;2023-04-24T02:38:13;9.90;99.90
6879;DHT22;3478;51.462;7.338;2023-04-24T02:43:15;9.80;99.90
6879;DHT22;3478;51.462;7.338;2023-04-24T02:48:17;9.70;99.90
6879;DHT22;3478;51.462;7.338;2023-04-24T02:53:22;9.60;99.90
6879;DHT22;3478;51.462;7.338;2023-04-24T02:58:24;9.60;99.90
6879;DHT22;3478;51.462;7.338;2023-04-24T03:03:26;9.60;99.90
6879;DHT22;3478;51.462;7.338;2023-04-24T03:08:29;9.60;99.90
6879;DHT22;3478;51.462;7.338;2023-04-24T03:13:31;9.50;99.90
6879;DHT22;3478;51.462;7.338;2023-04-24T03:18:32;9.50;99.90
6879;DHT22;3478;51.462;7.338;2023-04-24T03:23:36;9.60;99.90
6879;DHT22;3478;51.462;7.338;2023-04-24T03:28:37;9.60;99.90
6879;DHT22;3478;51.462;7.338;2023-04-24T03:33:39;9.70;99.90
6879;DHT22;3478;51.462;7.338;2023-04-24T03:38:42;9.70;99.90
6879;DHT22;3478;51.462;7.338;2023-04-24T03:43:44;9.60;99.90
6879;DHT22;3478;51.462;7.338;2023-04-24T03:48:46;9.60;99.90
6879;DHT22;3478;51.462;7.338;2023-04-24T03:53:49;9.60;99.90
6879;DHT22;3478;51.462;7.338;2023-04-24T03:58:51;9.70;99.90
6879;DHT22;3478;51.462;7.338;2023-04-24T04:03:53;9.70;99.90
6879;DHT22;3478;51.462;7.338;2023-04-24T04:08:56;9.70;99.90
6879;DHT22;3478;51.462;7.338;2023-04-24T04:13:58;9.70;99.90
6879;DHT22;3478;51.462;7.338;2023-04-24T04:18:59;9.70;99.90
6879;DHT22;3478;51.462;7.338;2023-04-24T04:24:05;9.70;99.90
6879;DHT22;3478;51.462;7.338;2023-04-24T04:29:07;9.70;99.90
6879;DHT22;3478;51.462;7.338;2023-04-24T04:34:09;9.70;99.90
6879;DHT22;3478;51.462;7.338;2023-04-24T04:39:13;9.80;99.90
6879;DHT22;3478;51.462;7.338;2023-04-24T04:44:16;9.70;99.90
6879;DHT22;3478;51.462;7.338;2023-04-24T04:49:18;9.70;99.90
6879;DHT22;3478;51.462;7.338;2023-04-24T04:54:23;9.70;99.90
6879;DHT22;3478;51.462;7.338;2023-04-24T04:59:25;9.70;99.90
6879;DHT22;3478;51.462;7.338;2023-04-24T05:04:27;9.70;99.90
6879;DHT22;3478;51.462;7.338;2023-04-24T05:09:30;9.70;99.90
6879;DHT22;3478;51.462;7.338;2023-04-24T05:14:32;9.70;99.90
6879;DHT22;3478;51.462;7.338;2023-04-24T05:19:33;9.70;99.90
6879;DHT22;3478;51.462;7.338;2023-04-24T05:24:39;9.70;99.90
6879;DHT22;3478;51.462;7.338;2023-04-24T05:29:41;9.70;99.90
6879;DHT22;3478;51.462;7.338;2023-04-24T05:34:43;9.80;99.90
6879;DHT22;3478;51.462;7.338;2023-04-24T05:39:47;9.80;99.90
6879;DHT22;3478;51.462;7.338;2023-04-24T05:44:48;9.70;99.90
6879;DHT22;3478;51.462;7.338;2023-04-24T05:49:50;9.70;99.90
6879;DHT22;3478;51.462;7.338;2023-04-24T05:54:53;9.60;99.90
6879;DHT22;3478;51.462;7.338;2023-04-24T05:59:56;9.50;99.90
6879;DHT22;3478;51.462;7.338;2023-04-24T06:04:58;9.30;99.90
6879;DHT22;3478;51.462;7.338;2023-04-24T06:10:01;9.20;99.90
6879;DHT22;3478;51.462;7.338;2023-04-24T06:15:04;9.10;99.90
6879;DHT22;3478;51.462;7.338;2023-04-24T06:20:07;9.10;99.90
6879;DHT22;3478;51.462;7.338;2023-04-24T06:25:10;9.10;99.90
6879;DHT22;3478;51.462;7.338;2023-04-24T06:30:12;9.20;99.90
6879;DHT22;3478;51.462;7.338;2023-04-24T06:35:14;9.10;99.90
6879;DHT22;3478;51.462;7.338;2023-04-24T06:40:17;9.20;99.90
6879;DHT22;3478;51.462;7.338;2023-04-24T06:45:20;9.20;99.90
6879;DHT22;3478;51.462;7.338;2023-04-24T06:50:22;9.20;99.90
6879;DHT22;3478;51.462;7.338;2023-04-24T06:55:25;9.30;99.90
6879;DHT22;3478;51.462;7.338;2023-04-24T07:00:26;9.30;99.90
6879;DHT22;3478;51.462;7.338;2023-04-24T07:05:30;9.40;99.90
6879;DHT22;3478;51.462;7.338;2023-04-24T07:10:35;9.50;99.90
6879;DHT22;3478;51.462;7.338;2023-04-24T07:15:37;9.50;99.90
6879;DHT22;3478;51.462;7.338;2023-04-24T07:20:40;9.40;99.90
6879;DHT22;3478;51.462;7.338;2023-04-24T07:25:43;9.40;99.90
6879;DHT22;3478;51.462;7.338;2023-04-24T07:30:45;9.30;99.90
6879;DHT22;3478;51.462;7.338;2023-04-24T07:35:47;9.40;99.90
6879;DHT22;3478;51.462;7.338;2023-04-24T07:40:50;9.10;99.90
6879;DHT22;3478;51.462;7.338;2023-04-24T07:45:52;9.10;99.90
6879;DHT22;3478;51.462;7.338;2023-04-24T07:50:54;9.00;99.90
6879;DHT22;3478;51.462;7.338;2023-04-24T07:55:57;8.90;99.90
6879;DHT22;3478;51.462;7.338;2023-04-24T08:00:59;8.90;99.90
6879;DHT22;3478;51.462;7.338;2023-04-24T08:06:01;9.00;99.90
6879;DHT22;3478;51.462;7.338;2023-04-24T08:11:04;9.10;99.90
6879;DHT22;3478;51.462;7.338;2023-04-24T08:16:06;9.00;99.90
6879;DHT22;3478;51.462;7.338;2023-04-24T08:21:08;8.80;99.90
6879;DHT22;3478;51.462;7.338;2023-04-24T08:26:11;8.70;99.90
6879;DHT22;3478;51.462;7.338;2023-04-24T08:31:13;8.70;99.90
6879;DHT22;3478;51.462;7.338;2023-04-24T08:36:15;8.80;99.90
6879;DHT22;3478;51.462;7.338;2023-04-24T08:41:19;8.70;99.90
6879;DHT22;3478;51.462;7.338;2023-04-24T08:46:22;8.70;99.90
6879;DHT22;3478;51.462;7.338;2023-04-24T08:51:26;8.50;99.90
6879;DHT22;3478;51.462;7.338;2023-04-24T08:56:32;8.40;99.90
6879;DHT22;3478;51.462;7.338;2023-04-24T09:01:37;8.40;99.90
6879;DHT22;3478;51.462;7.338;2023-04-24T09:06:41;8.30;99.90
6879;DHT22;3478;51.462;7.338;2023-04-24T09:11:44;8.30;99.90
6879;DHT22;3478;51.462;7.338;2023-04-24T09:16:47;8.30;99.90
6879;DHT22;3478;51.462;7.338;2023-04-24T09:21:52;8.20;99.90
6879;DHT22;3478;51.462;7.338;2023-04-24T09:26:58;8.30;99.90
6879;DHT22;3478;51.462;7.338;2023-04-24T09:32:18;8.40;99.90
6879;DHT22;3478;51.462;7.338;2023-04-24T09:37:28;8.40;99.90
6879;DHT22;3478;51.462;7.338;2023-04-24T09:42:32;8.60;99.90
6879;DHT22;3478;51.462;7.338;2023-04-24T09:47:36;8.70;99.90
6879;DHT22;3478;51.462;7.338;2023-04-24T09:52:40;8.80;99.90
6879;DHT22;3478;51.462;7.338;2023-04-24T09:57:51;8.80;99.90
6879;DHT22;3478;51.462;7.338;2023-04-24T10:02:58;8.80;99.90
6879;DHT22;3478;51.462;7.338;2023-04-24T10:08:01;8.50;99.90
6879;DHT22;3478;51.462;7.338;2023-04-24T10:13:07;8.50;99.90
6879;DHT22;3478;51.462;7.338;2023-04-24T10:18:10;8.40;99.90
6879;DHT22;3478;51.462;7.338;2023-04-24T10:23:12;8.40;99.90
6879;DHT22;3478;51.462;7.338;2023-04-24T10:28:16;8.30;99.90
6879;DHT22;3478;51.462;7.338;2023-04-24T10:33:19;8.10;99.90
6879;DHT22;3478;51.462;7.338;2023-04-24T10:38:24;8.10;99.90
6879;DHT22;3478;51.462;7.338;2023-04-24T10:43:28;8.20;99.90
6879;DHT22;3478;51.462;7.338;2023-04-24T10:48:31;8.20;99.90
6879;DHT22;3478;51.462;7.338;2023-04-24T10:53:35;8.40;99.90
6879;DHT22;3478;51.462;7.338;2023-04-24T10:58:40;8.50;99.90
6879;DHT22;3478;51.462;7.338;2023-04-24T11:03:51;8.50;99.90
6879;DHT22;3478;51.462;7.338;2023-04-24T11:09:02;8.50;99.90
6879;DHT22;3478;51.462;7.338;2023-04-24T11:14:09;8.70;99.90
6879;DHT22;3478;51.462;7.338;2023-04-24T11:19:20;8.70;99.90
6879;DHT22;3478;51.462;7.338;2023-04-24T11:24:28;8.60;99.90
6879;DHT22;3478;51.462;7.338;2023-04-24T11:29:43;8.70;99.90
6879;DHT22;3478;51.462;7.338;2023-04-24T11:34:49;8.80;99.90
6879;DHT22;3478;51.462;7.338;2023-04-24T11:39:52;8.90;99.90
6879;DHT22;3478;51.462;7.338;2023-04-24T11:44:55;8.90;99.90
6879;DHT22;3478;51.462;7.338;2023-04-24T11:49:58;9.20;99.90
6879;DHT22;3478;51.462;7.338;2023-04-24T11:55:00;9.40;99.90
6879;DHT22;3478;51.462;7.338;2023-04-24T12:00:05;9.40;99.90
6879;DHT22;3478;51.462;7.338;2023-04-24T12:05:08;9.20;99.90
6879;DHT22;3478;51.462;7.338;2023-04-24T12:10:12;9.10;99.90
6879;DHT22;3478;51.462;7.338;2023-04-24T12:15:16;8.90;99.90
6879;DHT22;3478;51.462;7.338;2023-04-24T12:20:24;8.80;99.90
6879;DHT22;3478;51.462;7.338;2023-04-24T12:25:27;8.70;99.90
6879;DHT22;3478;51.462;7.338;2023-04-24T12:30:33;9.10;99.90
6879;DHT22;3478;51.462;7.338;2023-04-24T12:35:36;9.80;99.90
6879;DHT22;3478;51.462;7.338;2023-04-24T12:40:38;10.90;99.90
6879;DHT22;3478;51.462;7.338;2023-04-24T12:45:41;10.80;99.90
6879;DHT22;3478;51.462;7.338;2023-04-24T12:50:43;10.70;99.90
6879;DHT22;3478;51.462;7.338;2023-04-24T12:55:45;10.00;99.90
6879;DHT22;3478;51.462;7.338;2023-04-24T13:00:54;9.70;99.90
6879;DHT22;3478;51.462;7.338;2023-04-24T13:05:55;9.70;99.90
6879;DHT22;3478;51.462;7.338;2023-04-24T13:10:57;9.60;99.90
6879;DHT22;3478;51.462;7.338;2023-04-24T13:16:01;9.60;99.90
6879;DHT22;3478;51.462;7.338;2023-04-24T13:21:03;9.60;99.90
6879;DHT22;3478;51.462;7.338;2023-04-24T13:26:04;9.80;99.90
6879;DHT22;3478;51.462;7.338;2023-04-24T13:31:08;10.10;99.90
6879;DHT22;3478;51.462;7.338;2023-04-24T13:36:10;10.40;99.90
6879;DHT22;3478;51.462;7.338;2023-04-24T13:41:12;10.40;99.90
6879;DHT22;3478;51.462;7.338;2023-04-24T13:46:15;10.40;99.90
6879;DHT22;3478;51.462;7.338;2023-04-24T13:51:17;10.20;99.90
6879;DHT22;3478;51.462;7.338;2023-04-24T13:56:19;10.10;99.90
6879;DHT22;3478;51.462;7.338;2023-04-24T14:01:24;10.00;99.90
6879;DHT22;3478;51.462;7.338;2023-04-24T14:06:26;10.10;99.90
6879;DHT22;3478;51.462;7.338;2023-04-24T14:11:29;10.10;99.90
6879;DHT22;3478;51.462;7.338;2023-04-24T14:16:32;10.40;99.90
6879;DHT22;3478;51.462;7.338;2023-04-24T14:21:36;10.30;99.90
6879;DHT22;3478;51.462;7.338;2023-04-24T14:26:38;10.60;99.90
6879;DHT22;3478;51.462;7.338;2023-04-24T14:31:44;11.00;99.90
6879;DHT22;3478;51.462;7.338;2023-04-24T14:36:48;11.10;99.90
6879;DHT22;3478;51.462;7.338;2023-04-24T14:41:53;11.30;99.90
6879;DHT22;3478;51.462;7.338;2023-04-24T14:46:57;11.00;99.90
6879;DHT22;3478;51.462;7.338;2023-04-24T14:51:58;10.70;99.90
6879;DHT22;3478;51.462;7.338;2023-04-24T14:57:01;10.70;99.90
6879;DHT22;3478;51.462;7.338;2023-04-24T15:02:05;10.50;99.90
6879;DHT22;3478;51.462;7.338;2023-04-24T15:07:07;10.20;99.90
6879;DHT22;3478;51.462;7.338;2023-04-24T15:12:09;10.10;99.90
6879;DHT22;3478;51.462;7.338;2023-04-24T15:17:14;10.00;99.90
6879;DHT22;3478;51.462;7.338;2023-04-24T15:22:18;9.90;99.90
6879;DHT22;3478;51.462;7.338;2023-04-24T15:27:20;9.70;99.90
6879;DHT22;3478;51.462;7.338;2023-04-24T15:32:23;9.50;99.90
6879;DHT22;3478;51.462;7.338;2023-04-24T15:37:26;9.80;99.90
6879;DHT22;3478;51.462;7.338;2023-04-24T15:42:28;10.40;99.90
6879;DHT22;3478;51.462;7.338;2023-04-24T15:47:31;10.40;99.90
6879;DHT22;3478;51.462;7.338;2023-04-24T15:52:33;10.70;99.90
6879;DHT22;3478;51.462;7.338;2023-04-24T15:57:35;11.50;99.90
6879;DHT22;3478;51.462;7.338;2023-04-24T16:02:39;12.20;99.90
6879;DHT22;3478;51.462;7.338;2023-04-24T16:07:41;11.30;99.90
6879;DHT22;3478;51.462;7.338;2023-04-24T16:12:43;11.90;99.90
6879;DHT22;3478;51.462;7.338;2023-04-24T16:17:48;12.70;99.90
6879;DHT22;3478;51.462;7.338;2023-04-24T16:22:50;12.30;99.90
6879;DHT22;3478;51.462;7.338;2023-04-24T16:27:52;12.20;99.90
6879;DHT22;3478;51.462;7.338;2023-04-24T16:32:55;11.70;99.90
6879;DHT22;3478;51.462;7.338;2023-04-24T16:37:57;11.30;99.90
6879;DHT22;3478;51.462;7.338;2023-04-24T16:43:00;11.90;99.90
6879;DHT22;3478;51.462;7.338;2023-04-24T16:48:03;12.50;99.90
6879;DHT22;3478;51.462;7.338;2023-04-24T16:53:05;12.00;99.90
6879;DHT22;3478;51.462;7.338;2023-04-24T16:58:07;12.50;99.90
6879;DHT22;3478;51.462;7.338;2023-04-24T17:03:11;11.80;99.90
6879;DHT22;3478;51.462;7.338;2023-04-24T17:08:13;11.10;99.90
6879;DHT22;3478;51.462;7.338;2023-04-24T17:13:15;10.60;99.90
6879;DHT22;3478;51.462;7.338;2023-04-24T17:18:18;10.40;99.90
6879;DHT22;3478;51.462;7.338;2023-04-24T17:23:20;10.30;99.90
6879;DHT22;3478;51.462;7.338;2023-04-24T17:28:24;10.30;99.90
6879;DHT22;3478;51.462;7.338;2023-04-24T17:33:28;10.10;99.90
6879;DHT22;3478;51.462;7.338;2023-04-24T17:38:31;9.90;99.90
6879;DHT22;3478;51.462;7.338;2023-04-24T17:43:33;9.60;99.90
6879;DHT22;3478;51.462;7.338;2023-04-24T17:48:36;9.40;99.90
6879;DHT22;3478;51.462;7.338;2023-04-24T17:53:38;9.40;99.90
6879;DHT22;3478;51.462;7.338;2023-04-24T17:58:41;9.30;99.90
6879;DHT22;3478;51.462;7.338;2023-04-24T18:03:44;9.20;99.90
6879;DHT22;3478;51.462;7.338;2023-04-24T18:08:46;9.30;99.90
6879;DHT22;3478;51.462;7.338;2023-04-24T18:13:48;9.30;99.90
6879;DHT22;3478;51.462;7.338;2023-04-24T18:18:52;9.40;99.90
6879;DHT22;3478;51.462;7.338;2023-04-24T18:23:54;9.40;99.90
6879;DHT22;3478;51.462;7.338;2023-04-24T18:28:59;9.30;99.90
6879;DHT22;3478;51.462;7.338;2023-04-24T18:34:03;9.20;99.90
6879;DHT22;3478;51.462;7.338;2023-04-24T18:39:05;9.00;99.90
6879;DHT22;3478;51.462;7.338;2023-04-24T18:44:07;8.90;99.90
6879;DHT22;3478;51.462;7.338;2023-04-24T18:49:13;8.90;99.90
6879;DHT22;3478;51.462;7.338;2023-04-24T18:54:15;8.90;99.90
6879;DHT22;3478;51.462;7.338;2023-04-24T18:59:17;8.80;99.90
6879;DHT22;3478;51.462;7.338;2023-04-24T19:04:20;8.70;99.90
6879;DHT22;3478;51.462;7.338;2023-04-24T19:09:22;8.70;99.90
6879;DHT22;3478;51.462;7.338;2023-04-24T19:14:24;8.70;99.90
6879;DHT22;3478;51.462;7.338;2023-04-24T19:19:27;8.60;99.90
6879;DHT22;3478;51.462;7.338;2023-04-24T19:24:31;8.50;99.90
6879;DHT22;3478;51.462;7.338;2023-04-24T19:29:33;8.40;99.90
6879;DHT22;3478;51.462;7.338;2023-04-24T19:34:36;8.40;99.90
6879;DHT22;3478;51.462;7.338;2023-04-24T19:39:38;8.30;99.90
6879;DHT22;3478;51.462;7.338;2023-04-24T19:44:40;8.30;99.90
6879;DHT22;3478;51.462;7.338;2023-04-24T19:49:44;8.20;99.90
6879;DHT22;3478;51.462;7.338;2023-04-24T19:54:46;8.10;99.90
6879;DHT22;3478;51.462;7.338;2023-04-24T19:59:48;8.10;99.90
6879;DHT22;3478;51.462;7.338;2023-04-24T20:04:51;8.10;99.90
6879;DHT22;3478;51.462;7.338;2023-04-24T20:09:53;8.00;99.90
6879;DHT22;3478;51.462;7.338;2023-04-24T20:14:55;8.10;99.90
6879;DHT22;3478;51.462;7.338;2023-04-24T20:19:58;8.10;99.90
6879;DHT22;3478;51.462;7.338;2023-04-24T20:25:00;8.00;99.90
6879;DHT22;3478;51.462;7.338;2023-04-24T20:30:03;8.10;99.90
6879;DHT22;3478;51.462;7.338;2023-04-24T20:35:08;8.10;99.90
6879;DHT22;3478;51.462;7.338;2023-04-24T20:40:11;8.20;99.90
6879;DHT22;3478;51.462;7.338;2023-04-24T20:45:13;8.20;99.90
6879;DHT22;3478;51.462;7.338;2023-04-24T20:50:18;8.20;99.90
6879;DHT22;3478;51.462;7.338;2023-04-24T20:55:20;8.20;99.90
6879;DHT22;3478;51.462;7.338;2023-04-24T21:00:22;8.20;99.90
6879;DHT22;3478;51.462;7.338;2023-04-24T21:05:26;8.20;99.90
6879;DHT22;3478;51.462;7.338;2023-04-24T21:10:28;8.20;99.90
6879;DHT22;3478;51.462;7.338;2023-04-24T21:15:30;8.10;99.90
6879;DHT22;3478;51.462;7.338;2023-04-24T21:20:33;8.10;99.90
6879;DHT22;3478;51.462;7.338;2023-04-24T21:25:35;8.10;99.90
6879;DHT22;3478;51.462;7.338;2023-04-24T21:30:38;8.00;99.90
6879;DHT22;3478;51.462;7.338;2023-04-24T21:35:41;7.90;99.90
6879;DHT22;3478;51.462;7.338;2023-04-24T21:40:43;7.80;99.90
6879;DHT22;3478;51.462;7.338;2023-04-24T21:45:45;7.70;99.90
6879;DHT22;3478;51.462;7.338;2023-04-24T21:50:48;7.60;99.90
6879;DHT22;3478;51.462;7.338;2023-04-24T21:55:50;7.50;99.90
6879;DHT22;3478;51.462;7.338;2023-04-24T22:00:52;7.50;99.90
6879;DHT22;3478;51.462;7.338;2023-04-24T22:05:56;7.50;99.90
6879;DHT22;3478;51.462;7.338;2023-04-24T22:10:57;7.40;99.90
6879;DHT22;3478;51.462;7.338;2023-04-24T22:16:00;7.40;99.90
6879;DHT22;3478;51.462;7.338;2023-04-24T22:21:03;7.40;99.90
6879;DHT22;3478;51.462;7.338;2023-04-24T22:26:05;7.40;99.90
6879;DHT22;3478;51.462;7.338;2023-04-24T22:31:07;7.30;99.90
6879;DHT22;3478;51.462;7.338;2023-04-24T22:36:11;7.20;99.90
6879;DHT22;3478;51.462;7.338;2023-04-24T22:41:13;7.10;99.90
6879;DHT22;3478;51.462;7.338;2023-04-24T22:46:16;7.10;99.90
6879;DHT22;3478;51.462;7.338;2023-04-24T22:51:19;7.00;99.90
6879;DHT22;3478;51.462;7.338;2023-04-24T22:56:22;7.00;99.90
6879;DHT22;3478;51.462;7.338;2023-04-24T23:01:24;7.00;99.90
6879;DHT22;3478;51.462;7.338;2023-04-24T23:06:28;7.00;99.90
6879;DHT22;3478;51.462;7.338;2023-04-24T23:11:30;7.00;99.90
6879;DHT22;3478;51.462;7.338;2023-04-24T23:16:32;7.00;99.90
6879;DHT22;3478;51.462;7.338;2023-04-24T23:21:38;6.90;99.90
6879;DHT22;3478;51.462;7.338;2023-04-24T23:26:40;6.90;99.90
6879;DHT22;3478;51.462;7.338;2023-04-24T23:31:42;6.90;99.90
6879;DHT22;3478;51.462;7.338;2023-04-24T23:36:46;6.90;99.90
6879;DHT22;3478;51.462;7.338;2023-04-24T23:41:48;6.80;99.90
6879;DHT22;3478;51.462;7.338;2023-04-24T23:46:53;6.80;99.90
6879;DHT22;3478;51.462;7.338;2023-04-24T23:51:56;6.80;99.90
6879;DHT22;3478;51.462;7.338;2023-04-24T23:56:58;6.80;99.90
